createdAt,value
2018-09-07T00:00:25.617Z,12.55
2018-09-07T00:02:53.858Z,15.23
2018-09-07T00:05:22.179Z,12.37
2018-09-07T00:07:50.397Z,12.95
2018-09-07T00:10:18.621Z,14.20
2018-09-07T00:12:46.842Z,11.40
2018-09-07T00:15:15.104Z,11.50
2018-09-07T00:17:43.349Z,12.80
2018-09-07T00:20:11.689Z,11.97
2018-09-07T00:22:40.058Z,14.68
2018-09-07T00:25:08.269Z,13.32
2018-09-07T00:27:36.613Z,13.15
2018-09-07T00:30:05.134Z,14.20
2018-09-07T00:32:33.418Z,13.38
2018-09-07T00:35:01.649Z,14.90
2018-09-07T00:37:29.870Z,18.25
2018-09-07T00:39:58.165Z,17.77
2018-09-07T00:42:26.434Z,15.38
2018-09-07T00:44:54.663Z,17.10
2018-09-07T00:47:29.550Z,13.13
2018-09-07T00:49:57.776Z,13.90
2018-09-07T00:52:26.450Z,12.98
2018-09-07T00:54:55.663Z,14.53
2018-09-07T00:57:23.926Z,15.68
2018-09-07T00:59:52.140Z,17.07
2018-09-07T01:02:20.347Z,15.28
2018-09-07T01:04:48.602Z,15.20
2018-09-07T01:07:16.865Z,14.70
2018-09-07T01:09:45.125Z,15.75
2018-09-07T01:12:13.385Z,18.65
2018-09-07T01:14:41.616Z,17.10
2018-09-07T01:17:09.866Z,16.45
2018-09-07T01:19:38.097Z,14.90
2018-09-07T01:22:06.335Z,18.87
2018-09-07T01:24:34.600Z,17.45
2018-09-07T01:27:02.890Z,18.00
2018-09-07T01:29:31.115Z,17.67
2018-09-07T01:31:59.435Z,16.48
2018-09-07T01:34:33.621Z,17.92
2018-09-07T01:37:07.121Z,19.73
2018-09-07T01:39:35.316Z,18.00
2018-09-07T01:42:03.589Z,20.50
2018-09-07T01:44:32.283Z,16.87
2018-09-07T01:47:00.813Z,17.32
2018-09-07T01:49:29.052Z,16.82
2018-09-07T01:51:57.291Z,19.02
2018-09-07T01:54:25.594Z,19.27
2018-09-07T01:56:53.814Z,19.80
2018-09-07T01:59:22.037Z,21.23
2018-09-07T02:01:50.298Z,26.23
2018-09-07T02:04:18.505Z,22.25
2018-09-07T02:06:46.834Z,23.18
2018-09-07T02:09:15.034Z,21.57
2018-09-07T02:11:43.304Z,22.45
2018-09-07T02:14:11.525Z,28.02
2018-09-07T02:16:39.742Z,27.07
2018-09-07T02:19:08.095Z,29.25
2018-09-07T02:21:36.333Z,28.35
2018-09-07T02:24:04.589Z,25.95
2018-09-07T02:26:32.889Z,33.53
2018-09-07T02:29:01.120Z,31.48
2018-09-07T02:31:29.345Z,32.00
2018-09-07T02:33:57.610Z,37.58
2018-09-07T02:36:25.832Z,35.70
2018-09-07T02:38:54.041Z,35.58
2018-09-07T02:41:22.423Z,39.03
2018-09-07T02:43:50.651Z,37.33
2018-09-07T02:46:18.910Z,37.25
2018-09-07T02:48:47.470Z,39.20
2018-09-07T02:51:15.696Z,44.18
2018-09-07T02:53:43.994Z,38.02
2018-09-07T02:56:12.313Z,45.95
2018-09-07T02:58:40.528Z,50.70
2018-09-07T03:01:08.765Z,46.28
2018-09-07T03:03:37.045Z,40.65
2018-09-07T03:06:05.353Z,48.52
2018-09-07T03:08:33.611Z,46.80
2018-09-07T03:11:01.853Z,52.17
2018-09-07T03:13:30.130Z,55.95
2018-09-07T03:15:58.358Z,53.50
2018-09-07T03:18:26.620Z,55.00
2018-09-07T03:20:54.873Z,61.15
2018-09-07T03:23:23.147Z,53.28
2018-09-07T03:25:51.374Z,70.35
2018-09-07T03:28:19.625Z,63.13
2018-09-07T03:30:47.846Z,58.85
2018-09-07T03:33:16.106Z,59.03
2018-09-07T03:35:44.357Z,67.05
2018-09-07T03:38:12.630Z,66.28
2018-09-07T03:40:40.841Z,72.25
2018-09-07T03:43:09.110Z,65.55
2018-09-07T03:45:37.373Z,69.70
2018-09-07T03:48:05.970Z,72.27
2018-09-07T03:50:34.373Z,74.55
2018-09-07T03:53:02.653Z,80.25
2018-09-07T03:55:30.922Z,79.60
2018-09-07T03:57:59.127Z,59.98
2018-09-07T04:00:27.462Z,55.83
2018-09-07T04:02:55.710Z,45.70
2018-09-07T04:05:23.983Z,33.65
2018-09-07T04:07:52.321Z,29.15
2018-09-07T04:10:20.558Z,25.12
2018-09-07T04:12:48.845Z,21.48
2018-09-07T04:15:17.066Z,19.12
2018-09-07T04:17:45.333Z,17.70
2018-09-07T04:20:13.624Z,15.05
2018-09-07T04:22:41.833Z,15.93
2018-09-07T04:25:10.041Z,14.45
2018-09-07T04:27:38.284Z,12.78
2018-09-07T04:30:06.905Z,13.18
2018-09-07T04:32:35.525Z,14.00
2018-09-07T04:35:03.819Z,13.98
2018-09-07T04:37:32.030Z,13.85
2018-09-07T04:40:00.297Z,15.45
2018-09-07T04:42:28.570Z,14.30
2018-09-07T04:44:56.790Z,18.95
2018-09-07T04:47:25.050Z,16.30
2018-09-07T04:49:53.301Z,18.25
2018-09-07T04:52:21.506Z,15.90
2018-09-07T04:54:49.751Z,19.10
2018-09-07T04:57:18.069Z,18.02
2018-09-07T04:59:46.318Z,16.45
2018-09-07T05:02:14.634Z,18.95
2018-09-07T05:04:42.917Z,18.95
2018-09-07T05:07:11.217Z,18.12
2018-09-07T05:09:39.485Z,19.90
2018-09-07T05:12:07.706Z,21.23
2018-09-07T05:14:35.981Z,18.05
2018-09-07T05:17:04.268Z,22.10
2018-09-07T05:19:32.536Z,19.00
2018-09-07T05:22:00.783Z,19.23
2018-09-07T05:24:28.982Z,21.35
2018-09-07T05:26:57.239Z,23.40
2018-09-07T05:29:25.539Z,18.32
2018-09-07T05:31:53.908Z,18.92
2018-09-07T05:34:22.222Z,17.80
2018-09-07T05:36:50.469Z,16.85
2018-09-07T05:39:18.686Z,15.60
2018-09-07T05:41:46.915Z,16.15
2018-09-07T05:44:15.269Z,15.68
2018-09-07T05:46:43.464Z,14.65
2018-09-07T05:49:11.666Z,16.35
2018-09-07T05:51:40.962Z,16.40
2018-09-07T05:54:09.182Z,15.50
2018-09-07T05:56:37.393Z,16.42
2018-09-07T05:59:05.662Z,17.35
2018-09-07T06:01:33.912Z,14.13
2018-09-07T06:04:02.181Z,12.90
2018-09-07T06:06:30.389Z,12.75
2018-09-07T06:08:58.621Z,13.93
2018-09-07T06:11:26.838Z,13.90
2018-09-07T06:13:55.131Z,10.88
2018-09-07T06:16:23.376Z,11.20
2018-09-07T06:18:51.953Z,11.25
2018-09-07T06:21:20.633Z,10.28
2018-09-07T06:23:48.877Z,9.98
2018-09-07T06:26:17.089Z,14.00
2018-09-07T06:28:45.329Z,9.65
2018-09-07T06:31:13.639Z,9.05
2018-09-07T06:33:41.957Z,9.48
2018-09-07T06:36:10.172Z,7.35
2018-09-07T06:38:38.429Z,7.45
2018-09-07T06:41:06.633Z,9.15
2018-09-07T06:43:34.838Z,8.13
2018-09-07T06:46:03.520Z,8.65
2018-09-07T06:48:31.733Z,9.90
2018-09-07T06:50:59.937Z,7.65
2018-09-07T06:53:28.169Z,8.05
2018-09-07T06:55:56.409Z,8.63
2018-09-07T06:58:24.630Z,7.80
2018-09-07T07:00:53.226Z,8.68
2018-09-07T07:03:21.545Z,7.60
2018-09-07T07:05:49.806Z,7.28
2018-09-07T07:08:18.102Z,6.42
2018-09-07T07:10:46.333Z,6.40
2018-09-07T07:13:14.625Z,6.28
2018-09-07T07:15:42.836Z,7.00
2018-09-07T07:18:11.138Z,8.35
2018-09-07T07:20:39.338Z,9.60
2018-09-07T07:23:07.657Z,6.30
2018-09-07T07:25:35.834Z,8.65
2018-09-07T07:28:04.077Z,6.30
2018-09-07T07:30:32.337Z,5.80
2018-09-07T07:33:01.433Z,7.72
2018-09-07T07:35:29.661Z,5.55
2018-09-07T07:37:57.881Z,4.42
2018-09-07T07:40:26.122Z,5.10
2018-09-07T07:42:54.345Z,5.92
2018-09-07T07:45:22.574Z,5.28
2018-09-07T07:47:50.817Z,4.80
2018-09-07T07:50:19.059Z,3.50
2018-09-07T07:52:47.298Z,4.00
2018-09-07T07:55:15.535Z,8.78
2018-09-07T07:57:43.803Z,3.90
2018-09-07T08:00:12.069Z,5.23
2018-09-07T08:02:40.309Z,3.80
2018-09-07T08:05:08.526Z,7.08
2018-09-07T08:07:36.765Z,8.63
2018-09-07T08:10:04.981Z,7.80
2018-09-07T08:12:33.292Z,6.80
2018-09-07T08:15:01.482Z,3.80
2018-09-07T08:17:29.718Z,4.60
2018-09-07T08:19:57.904Z,4.77
2018-09-07T08:22:26.213Z,5.10
2018-09-07T08:24:54.445Z,3.73
2018-09-07T08:27:22.725Z,5.03
2018-09-07T08:29:50.937Z,6.10
2018-09-07T08:32:19.165Z,3.53
2018-09-07T08:34:47.381Z,4.13
2018-09-07T08:37:15.628Z,2.53
2018-09-07T08:39:43.937Z,6.20
2018-09-07T08:42:12.145Z,3.13
2018-09-07T08:44:40.426Z,2.17
2018-09-07T08:47:08.707Z,1.67
2018-09-07T08:49:36.945Z,3.60
2018-09-07T08:52:05.257Z,3.20
2018-09-07T08:54:33.590Z,5.27
2018-09-07T08:57:01.781Z,2.17
2018-09-07T08:59:30.081Z,5.53
2018-09-07T09:01:58.262Z,8.97
2018-09-07T09:04:26.538Z,3.40
2018-09-07T09:06:54.790Z,4.30
2018-09-07T09:09:23.094Z,3.30
2018-09-07T09:11:51.317Z,5.07
2018-09-07T09:14:19.565Z,1.73
2018-09-07T09:16:47.841Z,3.90
2018-09-07T09:19:16.100Z,2.40
2018-09-07T09:21:44.473Z,1.77
2018-09-07T09:24:12.720Z,5.70
2018-09-07T09:26:41.002Z,1.67
2018-09-07T09:29:09.219Z,1.23
2018-09-07T09:31:37.429Z,0.80
2018-09-07T09:34:05.738Z,2.53
2018-09-07T09:36:34.074Z,2.07
2018-09-07T09:39:02.327Z,1.03
2018-09-07T09:41:30.542Z,3.10
2018-09-07T09:43:58.738Z,5.80
2018-09-07T09:46:26.929Z,1.40
2018-09-07T09:48:55.165Z,3.60
2018-09-07T09:51:23.463Z,2.67
2018-09-07T09:53:51.662Z,3.63
2018-09-07T09:56:19.893Z,2.23
2018-09-07T09:58:48.216Z,2.00
2018-09-07T10:01:21.943Z,1.30
2018-09-07T10:03:55.667Z,2.50
2018-09-07T10:06:23.907Z,0.80
2018-09-07T10:08:52.126Z,1.10
2018-09-07T10:11:20.347Z,2.80
2018-09-07T10:13:48.982Z,1.37
2018-09-07T10:16:17.258Z,2.03
2018-09-07T10:18:45.509Z,2.83
2018-09-07T10:21:13.785Z,1.27
2018-09-07T10:23:42.010Z,2.17
2018-09-07T10:26:10.233Z,1.47
2018-09-07T10:28:38.423Z,2.47
2018-09-07T10:31:06.677Z,1.57
2018-09-07T10:33:34.956Z,1.73
2018-09-07T10:36:03.193Z,2.10
2018-09-07T10:38:31.432Z,1.97
2018-09-07T10:40:59.665Z,1.53
2018-09-07T10:43:27.921Z,1.97
2018-09-07T10:45:56.127Z,2.30
2018-09-07T10:48:24.324Z,3.33
2018-09-07T10:50:52.571Z,1.77
2018-09-07T10:53:20.818Z,2.00
2018-09-07T10:55:49.080Z,1.37
2018-09-07T10:58:17.409Z,1.17
2018-09-07T11:00:45.681Z,2.30
2018-09-07T11:03:13.903Z,3.60
2018-09-07T11:05:42.142Z,3.07
2018-09-07T11:08:10.359Z,3.73
2018-09-07T11:10:38.589Z,0.77
2018-09-07T11:13:06.886Z,2.73
2018-09-07T11:15:35.194Z,2.53
2018-09-07T11:18:03.470Z,1.50
2018-09-07T11:20:32.170Z,1.43
2018-09-07T11:23:00.441Z,0.80
2018-09-07T11:25:28.718Z,3.23
2018-09-07T11:27:56.926Z,1.93
2018-09-07T11:30:25.149Z,0.70
2018-09-07T11:32:53.501Z,1.40
2018-09-07T11:35:21.853Z,1.03
2018-09-07T11:37:50.050Z,2.30
2018-09-07T11:40:18.295Z,1.80
2018-09-07T11:42:46.483Z,2.20
2018-09-07T11:45:14.766Z,1.10
2018-09-07T11:47:43.022Z,1.80
2018-09-07T11:50:11.329Z,2.93
2018-09-07T11:52:39.610Z,1.73
2018-09-07T11:55:07.870Z,4.30
2018-09-07T11:57:36.106Z,3.57
2018-09-07T12:00:04.434Z,2.40
2018-09-07T12:02:32.731Z,0.70
2018-09-07T12:05:00.966Z,1.50
2018-09-07T12:07:29.201Z,0.80
2018-09-07T12:09:57.493Z,1.70
2018-09-07T12:12:25.816Z,2.53
2018-09-07T12:14:54.028Z,2.43
2018-09-07T12:17:22.327Z,1.03
2018-09-07T12:19:50.541Z,1.47
2018-09-07T12:22:18.905Z,4.53
2018-09-07T12:24:47.264Z,3.50
2018-09-07T12:27:15.478Z,0.80
2018-09-07T12:29:43.693Z,4.20
2018-09-07T12:32:12.802Z,0.90
2018-09-07T12:34:41.077Z,0.70
2018-09-07T12:37:09.408Z,2.00
2018-09-07T12:39:37.877Z,0.70
2018-09-07T12:42:06.286Z,1.57
2018-09-07T12:44:34.470Z,1.40
2018-09-07T12:47:03.510Z,2.80
2018-09-07T12:49:31.753Z,3.43
2018-09-07T12:52:00.013Z,2.87
2018-09-07T12:54:28.297Z,1.00
2018-09-07T12:56:56.517Z,2.93
2018-09-07T12:59:24.812Z,1.77
2018-09-07T13:01:53.059Z,1.60
2018-09-07T13:04:21.346Z,5.33
2018-09-07T13:06:49.630Z,1.40
2018-09-07T13:09:17.869Z,1.80
2018-09-07T13:11:46.146Z,0.80
2018-09-07T13:14:14.369Z,2.10
2018-09-07T13:16:43.511Z,1.73
2018-09-07T13:19:11.941Z,1.27
2018-09-07T13:21:40.174Z,3.53
2018-09-07T13:24:08.352Z,1.90
2018-09-07T13:26:36.607Z,0.60
2018-09-07T13:29:05.030Z,1.00
2018-09-07T13:31:33.283Z,1.90
2018-09-07T13:34:01.483Z,0.60
2018-09-07T13:36:30.008Z,1.37
2018-09-07T13:38:58.254Z,1.13
2018-09-07T13:41:26.614Z,1.13
2018-09-07T13:43:55.013Z,1.20
2018-09-07T13:46:23.290Z,1.50
2018-09-07T13:48:51.502Z,1.13
2018-09-07T13:51:19.830Z,1.00
2018-09-07T13:53:48.069Z,1.87
2018-09-07T13:56:16.389Z,1.63
2018-09-07T13:58:44.578Z,1.40
2018-09-07T14:01:12.835Z,1.53
2018-09-07T14:03:41.107Z,2.70
2018-09-07T14:06:09.314Z,2.67
2018-09-07T14:08:37.761Z,1.53
2018-09-07T14:11:06.049Z,1.03
2018-09-07T14:13:34.297Z,1.67
2018-09-07T14:16:02.624Z,1.50
2018-09-07T14:18:30.878Z,2.37
2018-09-07T14:20:59.152Z,1.33
2018-09-07T14:23:27.353Z,0.90
2018-09-07T14:25:56.541Z,1.30
2018-09-07T14:28:25.441Z,1.80
2018-09-07T14:30:53.690Z,6.20
2018-09-07T14:33:21.989Z,1.80
2018-09-07T14:35:50.288Z,2.03
2018-09-07T14:38:18.521Z,0.67
2018-09-07T14:40:46.746Z,0.80
2018-09-07T14:43:14.965Z,2.93
2018-09-07T14:45:43.295Z,2.73
2018-09-07T14:48:11.598Z,0.60
2018-09-07T14:50:39.921Z,2.93
2018-09-07T14:53:08.206Z,1.17
2018-09-07T14:55:36.473Z,1.90
2018-09-07T14:58:05.650Z,1.40
2018-09-07T15:00:33.881Z,2.00
2018-09-07T15:03:02.122Z,1.13
2018-09-07T15:05:30.359Z,3.03
2018-09-07T15:07:58.589Z,1.60
2018-09-07T15:10:26.968Z,3.73
2018-09-07T15:12:55.173Z,1.37
2018-09-07T15:15:23.430Z,2.67
2018-09-07T15:17:51.737Z,2.57
2018-09-07T15:20:19.949Z,7.13
2018-09-07T15:22:48.322Z,4.10
2018-09-07T15:25:16.575Z,3.90
2018-09-07T15:27:44.790Z,4.50
2018-09-07T15:30:13.074Z,1.17
2018-09-07T15:32:41.350Z,0.80
2018-09-07T15:35:09.578Z,2.27
2018-09-07T15:37:37.831Z,4.57
2018-09-07T15:40:06.058Z,3.60
2018-09-07T15:42:34.414Z,3.37
2018-09-07T15:45:02.598Z,3.03
2018-09-07T15:47:30.978Z,1.73
2018-09-07T15:49:59.234Z,3.73
2018-09-07T15:52:27.455Z,1.13
2018-09-07T15:54:55.739Z,3.60
2018-09-07T15:57:23.951Z,4.50
2018-09-07T15:59:52.166Z,2.10
2018-09-07T16:02:20.438Z,1.77
2018-09-07T16:04:48.709Z,3.77
2018-09-07T16:07:16.910Z,4.13
2018-09-07T16:09:45.204Z,2.60
2018-09-07T16:12:13.506Z,1.07
2018-09-07T16:14:41.713Z,1.83
2018-09-07T16:17:09.985Z,1.80
2018-09-07T16:19:38.182Z,1.40
2018-09-07T16:22:06.441Z,6.57
2018-09-07T16:24:34.710Z,2.20
2018-09-07T16:27:02.913Z,4.00
2018-09-07T16:29:31.165Z,1.93
2018-09-07T16:31:59.528Z,2.87
2018-09-07T16:34:27.742Z,5.77
2018-09-07T16:36:56.014Z,2.83
2018-09-07T16:39:24.238Z,4.80
2018-09-07T16:41:52.466Z,1.98
2018-09-07T16:44:20.701Z,1.67
2018-09-07T16:46:48.961Z,1.47
2018-09-07T16:49:17.210Z,3.83
2018-09-07T16:51:45.477Z,5.65
2018-09-07T16:54:13.734Z,3.07
2018-09-07T16:56:41.940Z,1.40
2018-09-07T16:59:10.294Z,2.70
2018-09-07T17:01:38.513Z,3.12
2018-09-07T17:04:06.709Z,3.13
2018-09-07T17:06:34.956Z,3.30
2018-09-07T17:09:04.325Z,3.42
2018-09-07T17:11:32.561Z,2.95
2018-09-07T17:14:00.770Z,2.30
2018-09-07T17:16:29.061Z,9.60
2018-09-07T17:18:57.373Z,4.95
2018-09-07T17:21:25.778Z,3.60
2018-09-07T17:23:54.008Z,3.25
2018-09-07T17:26:22.246Z,2.67
2018-09-07T17:28:50.525Z,3.50
2018-09-07T17:31:18.805Z,1.95
2018-09-07T17:33:47.039Z,2.92
2018-09-07T17:36:15.406Z,3.15
2018-09-07T17:38:43.628Z,3.10
2018-09-07T17:41:11.891Z,2.67
2018-09-07T17:43:40.166Z,2.90
2018-09-07T17:46:08.369Z,3.87
2018-09-07T17:48:36.609Z,2.25
2018-09-07T17:51:04.850Z,2.77
2018-09-07T17:53:33.102Z,3.27
2018-09-07T17:56:01.310Z,4.00
2018-09-07T17:58:29.536Z,5.10
2018-09-07T18:00:57.810Z,3.22
2018-09-07T18:03:26.002Z,4.28
2018-09-07T18:05:58.613Z,7.28
2018-09-07T18:08:26.902Z,6.47
2018-09-07T18:10:55.181Z,1.80
2018-09-07T18:13:23.905Z,4.30
2018-09-07T18:15:52.220Z,2.75
2018-09-07T18:18:21.255Z,3.00
2018-09-07T18:20:49.453Z,2.55
2018-09-07T18:23:17.737Z,2.52
2018-09-07T18:25:45.937Z,6.35
2018-09-07T18:28:14.157Z,1.90
2018-09-07T18:30:42.469Z,2.72
2018-09-07T18:33:10.689Z,2.77
2018-09-07T18:35:39.136Z,1.60
2018-09-07T18:38:07.165Z,1.70
2018-09-07T18:40:35.383Z,2.85
2018-09-07T18:43:03.610Z,1.82
2018-09-07T18:45:31.810Z,2.55
2018-09-07T18:48:00.041Z,2.55
2018-09-07T18:50:28.338Z,2.83
2018-09-07T18:52:56.610Z,2.47
2018-09-07T18:55:24.870Z,4.22
2018-09-07T18:57:53.175Z,2.98
2018-09-07T19:00:22.921Z,3.60
2018-09-07T19:02:51.153Z,4.87
2018-09-07T19:05:19.427Z,2.37
2018-09-07T19:07:47.676Z,2.17
2018-09-07T19:10:16.026Z,1.62
2018-09-07T19:12:44.366Z,3.40
2018-09-07T19:15:12.581Z,5.72
2018-09-07T19:17:40.865Z,5.63
2018-09-07T19:20:09.137Z,1.62
2018-09-07T19:22:37.348Z,2.57
2018-09-07T19:25:05.677Z,2.87
2018-09-07T19:27:33.922Z,3.33
2018-09-07T19:30:02.151Z,2.10
2018-09-07T19:32:30.363Z,2.67
2018-09-07T19:34:58.758Z,4.08
2018-09-07T19:37:27.006Z,3.60
2018-09-07T19:39:55.210Z,3.50
2018-09-07T19:42:23.822Z,2.15
2018-09-07T19:44:52.049Z,5.08
2018-09-07T19:47:20.265Z,3.33
2018-09-07T19:49:48.490Z,1.47
2018-09-07T19:52:16.786Z,3.25
2018-09-07T19:54:45.018Z,2.67
2018-09-07T19:57:13.214Z,2.95
2018-09-07T19:59:41.413Z,1.87
2018-09-07T20:02:09.633Z,2.92
2018-09-07T20:04:38.054Z,1.70
2018-09-07T20:07:06.303Z,5.03
2018-09-07T20:09:34.602Z,1.70
2018-09-07T20:12:02.901Z,2.12
2018-09-07T20:14:31.167Z,3.50
2018-09-07T20:16:59.389Z,3.27
2018-09-07T20:19:27.625Z,5.53
2018-09-07T20:21:55.923Z,6.28
2018-09-07T20:24:24.325Z,4.75
2018-09-07T20:26:52.645Z,3.40
2018-09-07T20:29:20.916Z,4.70
2018-09-07T20:31:49.150Z,8.25
2018-09-07T20:34:17.382Z,7.42
2018-09-07T20:36:45.597Z,7.33
2018-09-07T20:39:13.829Z,5.70
2018-09-07T20:41:42.041Z,3.20
2018-09-07T20:44:10.331Z,6.15
2018-09-07T20:46:38.543Z,6.83
2018-09-07T20:49:06.854Z,5.40
2018-09-07T20:51:35.097Z,6.37
2018-09-07T20:54:03.310Z,4.90
2018-09-07T20:56:31.587Z,3.30
2018-09-07T20:58:59.855Z,4.30
2018-09-07T21:01:28.337Z,7.60
2018-09-07T21:03:56.630Z,3.62
2018-09-07T21:06:24.835Z,8.33
2018-09-07T21:08:53.141Z,9.03
2018-09-07T21:11:21.454Z,8.38
2018-09-07T21:13:49.731Z,5.37
2018-09-07T21:16:17.925Z,7.17
2018-09-07T21:18:46.242Z,2.80
2018-09-07T21:21:14.443Z,4.42
2018-09-07T21:23:42.681Z,5.45
2018-09-07T21:26:10.903Z,6.12
2018-09-07T21:28:39.098Z,5.70
2018-09-07T21:31:07.318Z,11.20
2018-09-07T21:33:35.570Z,6.10
2018-09-07T21:36:03.799Z,13.50
2018-09-07T21:38:32.080Z,8.40
2018-09-07T21:41:02.929Z,13.25
2018-09-07T21:43:31.158Z,8.35
2018-09-07T21:45:59.386Z,6.00
2018-09-07T21:48:27.585Z,11.45
2018-09-07T21:50:55.833Z,11.75
2018-09-07T21:53:24.069Z,6.45
2018-09-07T21:55:52.608Z,11.85
2018-09-07T21:58:20.819Z,10.75
2018-09-07T22:00:49.074Z,10.65
2018-09-07T22:03:17.305Z,10.58
2018-09-07T22:05:45.545Z,6.40
2018-09-07T22:08:13.852Z,9.95
2018-09-07T22:10:42.050Z,10.00
2018-09-07T22:13:10.283Z,15.78
2018-09-07T22:15:38.550Z,11.97
2018-09-07T22:18:06.794Z,5.55
2018-09-07T22:20:35.092Z,4.53
2018-09-07T22:23:03.333Z,5.28
2018-09-07T22:25:31.572Z,6.05
2018-09-07T22:27:59.881Z,10.88
2018-09-07T22:30:28.073Z,6.97
2018-09-07T22:32:56.337Z,10.60
2018-09-07T22:35:24.525Z,7.72
2018-09-07T22:37:52.753Z,11.45
2018-09-07T22:40:21.015Z,5.53
2018-09-07T22:42:49.209Z,7.15
2018-09-07T22:45:17.423Z,5.20
2018-09-07T22:47:45.690Z,5.33
2018-09-07T22:50:13.969Z,7.70
2018-09-07T22:52:42.221Z,6.50
2018-09-07T22:55:10.440Z,3.85
2018-09-07T22:57:38.697Z,7.45
2018-09-07T23:00:06.994Z,6.90
2018-09-07T23:02:35.221Z,5.03
2018-09-07T23:05:03.578Z,7.45
2018-09-07T23:07:31.794Z,6.33
2018-09-07T23:10:00.033Z,8.25
2018-09-07T23:12:28.344Z,3.67
2018-09-07T23:14:56.594Z,3.83
2018-09-07T23:17:24.789Z,5.72
2018-09-07T23:19:53.185Z,6.10
2018-09-07T23:22:21.458Z,6.15
2018-09-07T23:24:49.673Z,3.60
2018-09-07T23:27:17.917Z,8.30
2018-09-07T23:29:46.144Z,5.15
2018-09-07T23:32:14.547Z,3.87
2018-09-07T23:34:42.737Z,5.22
2018-09-07T23:37:10.946Z,6.08
2018-09-07T23:39:39.147Z,7.05
2018-09-07T23:42:07.430Z,7.40
2018-09-07T23:44:35.641Z,6.37
2018-09-07T23:47:03.870Z,4.17
2018-09-07T23:49:32.093Z,16.17
2018-09-07T23:52:00.346Z,6.22
2018-09-07T23:54:28.647Z,5.50
2018-09-07T23:56:56.922Z,5.05
2018-09-07T23:59:25.218Z,3.62
